sensor_id;sensor_type;location;lat;lon;timestamp;P1;durP1;ratioP1;P2;durP2;ratioP2
49314;SDS011;36672;50.710;12.498;2023-02-02T00:01:48;4.32;;;1.40;;
49314;SDS011;36672;50.710;12.498;2023-02-02T00:04:18;4.20;;;1.35;;
49314;SDS011;36672;50.710;12.498;2023-02-02T00:06:45;3.25;;;1.45;;
49314;SDS011;36672;50.710;12.498;2023-02-02T00:09:11;7.68;;;1.42;;
49314;SDS011;36672;50.710;12.498;2023-02-02T00:11:38;6.80;;;1.60;;
49314;SDS011;36672;50.710;12.498;2023-02-02T00:14:04;3.75;;;1.27;;
49314;SDS011;36672;50.710;12.498;2023-02-02T00:18:55;4.20;;;1.35;;
49314;SDS011;36672;50.710;12.498;2023-02-02T00:21:23;4.60;;;1.40;;
49314;SDS011;36672;50.710;12.498;2023-02-02T00:23:49;3.70;;;1.30;;
49314;SDS011;36672;50.710;12.498;2023-02-02T00:26:15;3.50;;;1.30;;
49314;SDS011;36672;50.710;12.498;2023-02-02T00:28:41;3.08;;;1.20;;
49314;SDS011;36672;50.710;12.498;2023-02-02T00:31:06;4.63;;;1.67;;
49314;SDS011;36672;50.710;12.498;2023-02-02T00:33:31;3.85;;;1.35;;
49314;SDS011;36672;50.710;12.498;2023-02-02T00:35:57;3.25;;;1.40;;
49314;SDS011;36672;50.710;12.498;2023-02-02T00:38:22;2.72;;;1.25;;
49314;SDS011;36672;50.710;12.498;2023-02-02T00:40:48;7.82;;;1.50;;
49314;SDS011;36672;50.710;12.498;2023-02-02T00:43:13;6.45;;;1.70;;
49314;SDS011;36672;50.710;12.498;2023-02-02T00:45:38;4.65;;;1.30;;
49314;SDS011;36672;50.710;12.498;2023-02-02T00:48:04;3.38;;;1.25;;
49314;SDS011;36672;50.710;12.498;2023-02-02T00:50:30;5.65;;;1.38;;
49314;SDS011;36672;50.710;12.498;2023-02-02T00:52:56;6.88;;;1.48;;
49314;SDS011;36672;50.710;12.498;2023-02-02T00:55:24;3.70;;;1.17;;
49314;SDS011;36672;50.710;12.498;2023-02-02T00:57:50;4.10;;;1.40;;
49314;SDS011;36672;50.710;12.498;2023-02-02T01:00:17;15.35;;;1.55;;
49314;SDS011;36672;50.710;12.498;2023-02-02T01:02:44;9.75;;;2.20;;
49314;SDS011;36672;50.710;12.498;2023-02-02T01:05:11;7.70;;;2.00;;
49314;SDS011;36672;50.710;12.498;2023-02-02T01:07:37;4.63;;;1.15;;
49314;SDS011;36672;50.710;12.498;2023-02-02T01:10:03;5.05;;;1.23;;
49314;SDS011;36672;50.710;12.498;2023-02-02T01:12:30;4.95;;;1.23;;
49314;SDS011;36672;50.710;12.498;2023-02-02T01:14:56;5.72;;;1.20;;
49314;SDS011;36672;50.710;12.498;2023-02-02T01:17:21;3.58;;;1.35;;
49314;SDS011;36672;50.710;12.498;2023-02-02T01:19:46;7.93;;;1.33;;
49314;SDS011;36672;50.710;12.498;2023-02-02T01:22:12;3.58;;;1.40;;
49314;SDS011;36672;50.710;12.498;2023-02-02T01:24:37;6.05;;;1.63;;
49314;SDS011;36672;50.710;12.498;2023-02-02T01:27:03;3.22;;;0.98;;
49314;SDS011;36672;50.710;12.498;2023-02-02T01:29:28;3.67;;;1.10;;
49314;SDS011;36672;50.710;12.498;2023-02-02T01:31:53;4.13;;;1.17;;
49314;SDS011;36672;50.710;12.498;2023-02-02T01:34:19;5.38;;;1.73;;
49314;SDS011;36672;50.710;12.498;2023-02-02T01:36:44;3.78;;;1.00;;
49314;SDS011;36672;50.710;12.498;2023-02-02T01:39:09;3.65;;;1.20;;
49314;SDS011;36672;50.710;12.498;2023-02-02T01:41:35;5.70;;;1.40;;
49314;SDS011;36672;50.710;12.498;2023-02-02T01:44:04;6.40;;;0.93;;
49314;SDS011;36672;50.710;12.498;2023-02-02T01:46:34;5.13;;;1.02;;
49314;SDS011;36672;50.710;12.498;2023-02-02T01:49:14;4.03;;;1.00;;
49314;SDS011;36672;50.710;12.498;2023-02-02T01:51:53;7.13;;;1.38;;
49314;SDS011;36672;50.710;12.498;2023-02-02T01:54:23;4.20;;;1.35;;
49314;SDS011;36672;50.710;12.498;2023-02-02T01:56:56;3.92;;;1.10;;
49314;SDS011;36672;50.710;12.498;2023-02-02T01:59:24;3.28;;;1.02;;
49314;SDS011;36672;50.710;12.498;2023-02-02T02:01:51;4.07;;;0.90;;
49314;SDS011;36672;50.710;12.498;2023-02-02T02:04:19;4.38;;;1.02;;
49314;SDS011;36672;50.710;12.498;2023-02-02T02:06:45;4.47;;;1.13;;
49314;SDS011;36672;50.710;12.498;2023-02-02T02:09:12;3.80;;;1.17;;
49314;SDS011;36672;50.710;12.498;2023-02-02T02:11:37;4.40;;;1.20;;
49314;SDS011;36672;50.710;12.498;2023-02-02T02:14:04;5.32;;;1.00;;
49314;SDS011;36672;50.710;12.498;2023-02-02T02:17:07;6.95;;;1.20;;
49314;SDS011;36672;50.710;12.498;2023-02-02T02:23:27;5.25;;;1.27;;
49314;SDS011;36672;50.710;12.498;2023-02-02T02:29:17;6.10;;;0.98;;
49314;SDS011;36672;50.710;12.498;2023-02-02T02:37:22;5.82;;;1.27;;
49314;SDS011;36672;50.710;12.498;2023-02-02T02:39:56;9.00;;;1.50;;
49314;SDS011;36672;50.710;12.498;2023-02-02T02:42:29;5.85;;;1.30;;
49314;SDS011;36672;50.710;12.498;2023-02-02T02:44:59;4.00;;;1.23;;
49314;SDS011;36672;50.710;12.498;2023-02-02T02:47:27;5.82;;;1.17;;
49314;SDS011;36672;50.710;12.498;2023-02-02T02:49:54;5.35;;;1.20;;
49314;SDS011;36672;50.710;12.498;2023-02-02T02:52:22;8.25;;;1.20;;
49314;SDS011;36672;50.710;12.498;2023-02-02T02:54:48;6.43;;;1.10;;
49314;SDS011;36672;50.710;12.498;2023-02-02T03:08:36;5.68;;;1.00;;
49314;SDS011;36672;50.710;12.498;2023-02-02T03:11:05;3.55;;;1.02;;
49314;SDS011;36672;50.710;12.498;2023-02-02T03:13:34;5.25;;;1.10;;
49314;SDS011;36672;50.710;12.498;2023-02-02T03:15:59;4.13;;;1.20;;
49314;SDS011;36672;50.710;12.498;2023-02-02T03:18:26;4.38;;;1.20;;
49314;SDS011;36672;50.710;12.498;2023-02-02T03:20:53;5.35;;;1.45;;
49314;SDS011;36672;50.710;12.498;2023-02-02T03:23:19;5.88;;;1.17;;
49314;SDS011;36672;50.710;12.498;2023-02-02T03:25:45;4.85;;;1.00;;
49314;SDS011;36672;50.710;12.498;2023-02-02T03:28:10;3.70;;;1.20;;
49314;SDS011;36672;50.710;12.498;2023-02-02T03:30:37;3.35;;;0.93;;
49314;SDS011;36672;50.710;12.498;2023-02-02T03:33:04;8.15;;;1.60;;
49314;SDS011;36672;50.710;12.498;2023-02-02T03:35:30;5.68;;;1.10;;
49314;SDS011;36672;50.710;12.498;2023-02-02T03:37:55;4.60;;;1.20;;
49314;SDS011;36672;50.710;12.498;2023-02-02T03:40:21;6.03;;;1.20;;
49314;SDS011;36672;50.710;12.498;2023-02-02T03:42:49;6.53;;;1.33;;
49314;SDS011;36672;50.710;12.498;2023-02-02T03:45:14;7.75;;;1.02;;
49314;SDS011;36672;50.710;12.498;2023-02-02T03:47:40;3.67;;;0.93;;
49314;SDS011;36672;50.710;12.498;2023-02-02T03:50:05;4.50;;;1.30;;
49314;SDS011;36672;50.710;12.498;2023-02-02T03:52:32;5.80;;;1.25;;
49314;SDS011;36672;50.710;12.498;2023-02-02T03:54:57;6.22;;;1.30;;
49314;SDS011;36672;50.710;12.498;2023-02-02T03:57:24;3.35;;;1.35;;
49314;SDS011;36672;50.710;12.498;2023-02-02T03:59:49;4.72;;;1.23;;
49314;SDS011;36672;50.710;12.498;2023-02-02T04:02:14;7.20;;;1.10;;
49314;SDS011;36672;50.710;12.498;2023-02-02T04:04:40;5.57;;;1.13;;
49314;SDS011;36672;50.710;12.498;2023-02-02T04:07:05;10.10;;;1.75;;
49314;SDS011;36672;50.710;12.498;2023-02-02T04:09:30;6.03;;;1.20;;
49314;SDS011;36672;50.710;12.498;2023-02-02T04:11:56;4.45;;;1.00;;
49314;SDS011;36672;50.710;12.498;2023-02-02T04:14:21;5.20;;;1.30;;
49314;SDS011;36672;50.710;12.498;2023-02-02T04:16:46;7.03;;;1.50;;
49314;SDS011;36672;50.710;12.498;2023-02-02T04:19:12;5.60;;;1.45;;
49314;SDS011;36672;50.710;12.498;2023-02-02T04:21:38;5.47;;;1.08;;
49314;SDS011;36672;50.710;12.498;2023-02-02T04:24:04;6.00;;;1.00;;
49314;SDS011;36672;50.710;12.498;2023-02-02T04:26:31;3.88;;;1.08;;
49314;SDS011;36672;50.710;12.498;2023-02-02T04:28:56;6.00;;;1.13;;
49314;SDS011;36672;50.710;12.498;2023-02-02T04:31:21;7.38;;;1.58;;
49314;SDS011;36672;50.710;12.498;2023-02-02T04:33:47;7.35;;;1.30;;
49314;SDS011;36672;50.710;12.498;2023-02-02T04:36:12;3.90;;;1.20;;
49314;SDS011;36672;50.710;12.498;2023-02-02T04:38:37;6.82;;;1.30;;
49314;SDS011;36672;50.710;12.498;2023-02-02T04:41:06;6.07;;;1.40;;
49314;SDS011;36672;50.710;12.498;2023-02-02T04:43:34;5.57;;;1.30;;
49314;SDS011;36672;50.710;12.498;2023-02-02T04:46:00;4.45;;;1.30;;
49314;SDS011;36672;50.710;12.498;2023-02-02T04:48:25;5.40;;;1.20;;
49314;SDS011;36672;50.710;12.498;2023-02-02T04:50:50;6.28;;;1.10;;
49314;SDS011;36672;50.710;12.498;2023-02-02T04:53:22;9.07;;;1.88;;
49314;SDS011;36672;50.710;12.498;2023-02-02T04:55:47;5.32;;;1.10;;
49314;SDS011;36672;50.710;12.498;2023-02-02T04:58:13;7.63;;;1.45;;
49314;SDS011;36672;50.710;12.498;2023-02-02T05:00:38;5.93;;;1.30;;
49314;SDS011;36672;50.710;12.498;2023-02-02T05:03:03;10.30;;;1.25;;
49314;SDS011;36672;50.710;12.498;2023-02-02T05:05:29;8.98;;;1.45;;
49314;SDS011;36672;50.710;12.498;2023-02-02T05:07:54;5.82;;;1.27;;
49314;SDS011;36672;50.710;12.498;2023-02-02T05:10:19;10.73;;;1.40;;
49314;SDS011;36672;50.710;12.498;2023-02-02T05:12:45;6.45;;;1.20;;
49314;SDS011;36672;50.710;12.498;2023-02-02T05:15:10;6.22;;;1.50;;
49314;SDS011;36672;50.710;12.498;2023-02-02T05:17:35;10.52;;;1.50;;
49314;SDS011;36672;50.710;12.498;2023-02-02T05:20:01;6.38;;;1.48;;
49314;SDS011;36672;50.710;12.498;2023-02-02T05:22:26;6.30;;;1.52;;
49314;SDS011;36672;50.710;12.498;2023-02-02T05:24:51;7.03;;;1.67;;
49314;SDS011;36672;50.710;12.498;2023-02-02T05:27:17;8.30;;;1.63;;
49314;SDS011;36672;50.710;12.498;2023-02-02T05:29:42;6.72;;;1.23;;
49314;SDS011;36672;50.710;12.498;2023-02-02T05:32:07;10.60;;;1.70;;
49314;SDS011;36672;50.710;12.498;2023-02-02T05:34:33;4.78;;;1.23;;
49314;SDS011;36672;50.710;12.498;2023-02-02T05:36:58;8.18;;;1.52;;
49314;SDS011;36672;50.710;12.498;2023-02-02T05:39:23;10.75;;;1.77;;
49314;SDS011;36672;50.710;12.498;2023-02-02T05:41:49;10.00;;;1.73;;
49314;SDS011;36672;50.710;12.498;2023-02-02T05:44:14;8.38;;;1.40;;
49314;SDS011;36672;50.710;12.498;2023-02-02T05:46:40;6.25;;;1.35;;
49314;SDS011;36672;50.710;12.498;2023-02-02T05:49:06;6.97;;;1.60;;
49314;SDS011;36672;50.710;12.498;2023-02-02T05:51:38;6.80;;;1.98;;
49314;SDS011;36672;50.710;12.498;2023-02-02T05:54:06;6.80;;;1.42;;
49314;SDS011;36672;50.710;12.498;2023-02-02T05:56:31;7.03;;;1.63;;
49314;SDS011;36672;50.710;12.498;2023-02-02T05:58:56;5.60;;;1.65;;
49314;SDS011;36672;50.710;12.498;2023-02-02T06:01:22;9.13;;;1.42;;
49314;SDS011;36672;50.710;12.498;2023-02-02T06:03:48;11.00;;;1.55;;
49314;SDS011;36672;50.710;12.498;2023-02-02T06:06:13;8.05;;;2.08;;
49314;SDS011;36672;50.710;12.498;2023-02-02T06:08:38;3.90;;;1.45;;
49314;SDS011;36672;50.710;12.498;2023-02-02T06:11:14;9.75;;;1.70;;
49314;SDS011;36672;50.710;12.498;2023-02-02T06:13:40;6.15;;;1.30;;
49314;SDS011;36672;50.710;12.498;2023-02-02T06:16:06;9.82;;;1.63;;
49314;SDS011;36672;50.710;12.498;2023-02-02T06:18:32;6.95;;;1.38;;
49314;SDS011;36672;50.710;12.498;2023-02-02T06:20:59;7.15;;;2.13;;
49314;SDS011;36672;50.710;12.498;2023-02-02T06:23:25;6.30;;;1.30;;
49314;SDS011;36672;50.710;12.498;2023-02-02T06:25:51;6.28;;;1.38;;
49314;SDS011;36672;50.710;12.498;2023-02-02T06:28:16;8.75;;;1.80;;
49314;SDS011;36672;50.710;12.498;2023-02-02T06:30:42;5.43;;;1.23;;
49314;SDS011;36672;50.710;12.498;2023-02-02T06:33:07;4.07;;;1.40;;
49314;SDS011;36672;50.710;12.498;2023-02-02T06:35:32;6.40;;;1.70;;
49314;SDS011;36672;50.710;12.498;2023-02-02T06:37:58;6.50;;;1.40;;
49314;SDS011;36672;50.710;12.498;2023-02-02T06:40:24;6.03;;;1.38;;
49314;SDS011;36672;50.710;12.498;2023-02-02T06:43:00;8.48;;;2.13;;
49314;SDS011;36672;50.710;12.498;2023-02-02T06:45:27;6.53;;;1.65;;
49314;SDS011;36672;50.710;12.498;2023-02-02T06:47:53;5.20;;;1.58;;
49314;SDS011;36672;50.710;12.498;2023-02-02T06:50:22;7.75;;;1.75;;
49314;SDS011;36672;50.710;12.498;2023-02-02T06:52:48;8.95;;;1.50;;
49314;SDS011;36672;50.710;12.498;2023-02-02T06:55:14;11.45;;;1.50;;
49314;SDS011;36672;50.710;12.498;2023-02-02T06:57:40;8.82;;;1.75;;
49314;SDS011;36672;50.710;12.498;2023-02-02T07:00:06;7.07;;;1.33;;
49314;SDS011;36672;50.710;12.498;2023-02-02T07:02:33;11.40;;;2.05;;
49314;SDS011;36672;50.710;12.498;2023-02-02T07:04:59;5.00;;;1.40;;
49314;SDS011;36672;50.710;12.498;2023-02-02T07:07:25;6.57;;;1.48;;
49314;SDS011;36672;50.710;12.498;2023-02-02T07:09:50;20.15;;;1.80;;
49314;SDS011;36672;50.710;12.498;2023-02-02T07:12:15;7.63;;;1.60;;
49314;SDS011;36672;50.710;12.498;2023-02-02T07:14:43;9.00;;;1.63;;
49314;SDS011;36672;50.710;12.498;2023-02-02T07:17:09;4.75;;;1.27;;
49314;SDS011;36672;50.710;12.498;2023-02-02T07:19:34;11.05;;;1.70;;
49314;SDS011;36672;50.710;12.498;2023-02-02T07:21:59;6.30;;;1.38;;
49314;SDS011;36672;50.710;12.498;2023-02-02T07:24:25;9.05;;;1.40;;
49314;SDS011;36672;50.710;12.498;2023-02-02T07:26:51;7.82;;;1.50;;
49314;SDS011;36672;50.710;12.498;2023-02-02T07:29:17;6.93;;;1.38;;
49314;SDS011;36672;50.710;12.498;2023-02-02T07:31:42;10.60;;;1.25;;
49314;SDS011;36672;50.710;12.498;2023-02-02T07:34:07;9.30;;;1.73;;
49314;SDS011;36672;50.710;12.498;2023-02-02T07:36:33;7.22;;;1.45;;
49314;SDS011;36672;50.710;12.498;2023-02-02T07:38:59;9.70;;;1.98;;
49314;SDS011;36672;50.710;12.498;2023-02-02T07:41:27;8.32;;;1.85;;
49314;SDS011;36672;50.710;12.498;2023-02-02T07:43:53;7.18;;;1.42;;
49314;SDS011;36672;50.710;12.498;2023-02-02T07:46:18;6.20;;;1.75;;
49314;SDS011;36672;50.710;12.498;2023-02-02T07:48:44;7.68;;;1.48;;
49314;SDS011;36672;50.710;12.498;2023-02-02T07:51:11;5.55;;;1.58;;
49314;SDS011;36672;50.710;12.498;2023-02-02T07:53:38;7.30;;;1.75;;
49314;SDS011;36672;50.710;12.498;2023-02-02T07:56:28;5.43;;;1.45;;
49314;SDS011;36672;50.710;12.498;2023-02-02T07:58:53;7.35;;;1.40;;
49314;SDS011;36672;50.710;12.498;2023-02-02T08:01:20;9.52;;;1.70;;
49314;SDS011;36672;50.710;12.498;2023-02-02T08:03:47;7.97;;;1.40;;
49314;SDS011;36672;50.710;12.498;2023-02-02T08:06:13;3.50;;;1.25;;
49314;SDS011;36672;50.710;12.498;2023-02-02T08:08:44;6.35;;;1.40;;
49314;SDS011;36672;50.710;12.498;2023-02-02T08:11:11;9.82;;;1.83;;
49314;SDS011;36672;50.710;12.498;2023-02-02T08:13:39;5.38;;;1.27;;
49314;SDS011;36672;50.710;12.498;2023-02-02T08:16:05;6.78;;;1.80;;
49314;SDS011;36672;50.710;12.498;2023-02-02T08:18:32;13.30;;;2.17;;
49314;SDS011;36672;50.710;12.498;2023-02-02T08:21:02;7.45;;;1.60;;
49314;SDS011;36672;50.710;12.498;2023-02-02T08:23:28;7.00;;;1.38;;
49314;SDS011;36672;50.710;12.498;2023-02-02T08:26:03;8.07;;;1.50;;
49314;SDS011;36672;50.710;12.498;2023-02-02T08:28:30;7.60;;;1.73;;
49314;SDS011;36672;50.710;12.498;2023-02-02T08:30:55;8.00;;;1.90;;
49314;SDS011;36672;50.710;12.498;2023-02-02T08:33:21;8.52;;;1.60;;
49314;SDS011;36672;50.710;12.498;2023-02-02T08:35:46;5.45;;;1.25;;
49314;SDS011;36672;50.710;12.498;2023-02-02T08:38:12;5.10;;;1.40;;
49314;SDS011;36672;50.710;12.498;2023-02-02T08:40:37;4.45;;;1.10;;
49314;SDS011;36672;50.710;12.498;2023-02-02T08:43:03;6.35;;;1.50;;
49314;SDS011;36672;50.710;12.498;2023-02-02T08:45:29;8.75;;;1.60;;
49314;SDS011;36672;50.710;12.498;2023-02-02T08:47:56;8.85;;;1.45;;
49314;SDS011;36672;50.710;12.498;2023-02-02T08:50:21;8.25;;;1.45;;
49314;SDS011;36672;50.710;12.498;2023-02-02T08:52:47;4.18;;;1.10;;
49314;SDS011;36672;50.710;12.498;2023-02-02T08:55:12;4.80;;;1.60;;
49314;SDS011;36672;50.710;12.498;2023-02-02T08:57:38;7.28;;;1.20;;
49314;SDS011;36672;50.710;12.498;2023-02-02T09:00:04;5.00;;;1.30;;
49314;SDS011;36672;50.710;12.498;2023-02-02T09:02:30;6.68;;;1.60;;
49314;SDS011;36672;50.710;12.498;2023-02-02T09:04:56;4.65;;;1.33;;
49314;SDS011;36672;50.710;12.498;2023-02-02T09:07:21;6.05;;;1.40;;
49314;SDS011;36672;50.710;12.498;2023-02-02T09:09:46;4.60;;;1.40;;
49314;SDS011;36672;50.710;12.498;2023-02-02T09:12:12;5.93;;;1.45;;
49314;SDS011;36672;50.710;12.498;2023-02-02T09:14:37;5.18;;;1.55;;
49314;SDS011;36672;50.710;12.498;2023-02-02T09:17:02;9.38;;;1.88;;
49314;SDS011;36672;50.710;12.498;2023-02-02T09:19:28;7.70;;;1.38;;
49314;SDS011;36672;50.710;12.498;2023-02-02T09:21:53;5.45;;;1.40;;
49314;SDS011;36672;50.710;12.498;2023-02-02T09:24:18;6.07;;;1.30;;
49314;SDS011;36672;50.710;12.498;2023-02-02T09:26:44;5.90;;;1.35;;
49314;SDS011;36672;50.710;12.498;2023-02-02T09:29:14;7.53;;;1.58;;
49314;SDS011;36672;50.710;12.498;2023-02-02T09:31:41;7.45;;;1.42;;
49314;SDS011;36672;50.710;12.498;2023-02-02T09:34:08;10.35;;;2.10;;
49314;SDS011;36672;50.710;12.498;2023-02-02T09:36:35;5.32;;;1.33;;
49314;SDS011;36672;50.710;12.498;2023-02-02T09:39:02;11.52;;;1.50;;
49314;SDS011;36672;50.710;12.498;2023-02-02T09:55:06;4.53;;;1.40;;
49314;SDS011;36672;50.710;12.498;2023-02-02T09:57:59;5.65;;;1.50;;
49314;SDS011;36672;50.710;12.498;2023-02-02T10:00:36;6.35;;;1.65;;
49314;SDS011;36672;50.710;12.498;2023-02-02T10:03:20;6.50;;;1.58;;
49314;SDS011;36672;50.710;12.498;2023-02-02T10:05:53;5.82;;;1.20;;
49314;SDS011;36672;50.710;12.498;2023-02-02T10:08:41;6.10;;;1.33;;
49314;SDS011;36672;50.710;12.498;2023-02-02T10:11:17;8.00;;;1.40;;
49314;SDS011;36672;50.710;12.498;2023-02-02T10:13:51;6.90;;;1.30;;
49314;SDS011;36672;50.710;12.498;2023-02-02T10:16:21;4.50;;;1.42;;
49314;SDS011;36672;50.710;12.498;2023-02-02T10:24:19;5.30;;;1.50;;
49314;SDS011;36672;50.710;12.498;2023-02-02T10:26:53;5.18;;;1.30;;
49314;SDS011;36672;50.710;12.498;2023-02-02T10:34:27;4.30;;;1.08;;
49314;SDS011;36672;50.710;12.498;2023-02-02T10:37:16;5.97;;;1.60;;
49314;SDS011;36672;50.710;12.498;2023-02-02T10:45:01;5.00;;;1.20;;
49314;SDS011;36672;50.710;12.498;2023-02-02T10:47:34;4.95;;;1.20;;
49314;SDS011;36672;50.710;12.498;2023-02-02T10:52:36;6.03;;;1.20;;
49314;SDS011;36672;50.710;12.498;2023-02-02T11:00:39;3.15;;;1.00;;
49314;SDS011;36672;50.710;12.498;2023-02-02T11:03:16;4.13;;;1.10;;
49314;SDS011;36672;50.710;12.498;2023-02-02T11:05:44;2.72;;;1.05;;
49314;SDS011;36672;50.710;12.498;2023-02-02T11:08:42;6.50;;;1.27;;
49314;SDS011;36672;50.710;12.498;2023-02-02T11:11:11;4.45;;;1.10;;
49314;SDS011;36672;50.710;12.498;2023-02-02T11:13:45;4.43;;;1.10;;
49314;SDS011;36672;50.710;12.498;2023-02-02T11:18:44;3.20;;;0.82;;
49314;SDS011;36672;50.710;12.498;2023-02-02T11:21:20;4.53;;;1.02;;
49314;SDS011;36672;50.710;12.498;2023-02-02T11:27:12;1.65;;;0.70;;
49314;SDS011;36672;50.710;12.498;2023-02-02T11:29:43;2.30;;;0.90;;
49314;SDS011;36672;50.710;12.498;2023-02-02T11:32:17;3.08;;;0.77;;
49314;SDS011;36672;50.710;12.498;2023-02-02T11:37:26;3.22;;;0.90;;
49314;SDS011;36672;50.710;12.498;2023-02-02T11:39:52;1.65;;;0.90;;
49314;SDS011;36672;50.710;12.498;2023-02-02T11:44:48;2.42;;;0.82;;
49314;SDS011;36672;50.710;12.498;2023-02-02T11:47:20;4.18;;;0.85;;
49314;SDS011;36672;50.710;12.498;2023-02-02T11:49:50;7.22;;;0.88;;
49314;SDS011;36672;50.710;12.498;2023-02-02T11:52:18;4.43;;;0.93;;
49314;SDS011;36672;50.710;12.498;2023-02-02T11:54:47;5.18;;;1.00;;
49314;SDS011;36672;50.710;12.498;2023-02-02T11:57:15;4.45;;;0.82;;
49314;SDS011;36672;50.710;12.498;2023-02-02T11:59:45;6.05;;;0.93;;
49314;SDS011;36672;50.710;12.498;2023-02-02T12:04:47;3.60;;;0.80;;
49314;SDS011;36672;50.710;12.498;2023-02-02T12:09:47;9.32;;;1.50;;
49314;SDS011;36672;50.710;12.498;2023-02-02T12:12:17;3.92;;;1.00;;
49314;SDS011;36672;50.710;12.498;2023-02-02T12:14:55;3.65;;;1.35;;
49314;SDS011;36672;50.710;12.498;2023-02-02T12:17:36;6.53;;;0.80;;
49314;SDS011;36672;50.710;12.498;2023-02-02T12:31:08;3.38;;;0.98;;
49314;SDS011;36672;50.710;12.498;2023-02-02T12:34:07;4.00;;;1.23;;
49314;SDS011;36672;50.710;12.498;2023-02-02T12:44:22;5.07;;;1.00;;
49314;SDS011;36672;50.710;12.498;2023-02-02T12:57:41;3.28;;;0.85;;
49314;SDS011;36672;50.710;12.498;2023-02-02T13:00:23;5.07;;;1.00;;
49314;SDS011;36672;50.710;12.498;2023-02-02T13:08:25;5.80;;;1.10;;
49314;SDS011;36672;50.710;12.498;2023-02-02T13:10:59;2.35;;;0.90;;
49314;SDS011;36672;50.710;12.498;2023-02-02T13:13:53;3.15;;;0.73;;
49314;SDS011;36672;50.710;12.498;2023-02-02T13:16:21;3.85;;;0.98;;
49314;SDS011;36672;50.710;12.498;2023-02-02T13:18:50;3.25;;;1.05;;
49314;SDS011;36672;50.710;12.498;2023-02-02T13:21:20;4.05;;;0.80;;
49314;SDS011;36672;50.710;12.498;2023-02-02T13:23:49;5.75;;;1.15;;
49314;SDS011;36672;50.710;12.498;2023-02-02T13:26:18;2.28;;;0.80;;
49314;SDS011;36672;50.710;12.498;2023-02-02T13:31:49;4.25;;;0.70;;
49314;SDS011;36672;50.710;12.498;2023-02-02T13:36:59;2.45;;;0.70;;
49314;SDS011;36672;50.710;12.498;2023-02-02T13:39:33;2.42;;;1.00;;
49314;SDS011;36672;50.710;12.498;2023-02-02T13:42:04;1.63;;;0.68;;
49314;SDS011;36672;50.710;12.498;2023-02-02T13:44:40;5.68;;;1.00;;
49314;SDS011;36672;50.710;12.498;2023-02-02T13:47:22;1.48;;;0.52;;
49314;SDS011;36672;50.710;12.498;2023-02-02T13:50:03;6.07;;;0.68;;
49314;SDS011;36672;50.710;12.498;2023-02-02T13:57:37;1.60;;;0.57;;
49314;SDS011;36672;50.710;12.498;2023-02-02T14:00:15;2.72;;;0.70;;
49314;SDS011;36672;50.710;12.498;2023-02-02T14:02:54;4.43;;;0.60;;
49314;SDS011;36672;50.710;12.498;2023-02-02T14:05:30;3.38;;;1.30;;
49314;SDS011;36672;50.710;12.498;2023-02-02T14:08:03;2.28;;;0.65;;
49314;SDS011;36672;50.710;12.498;2023-02-02T14:10:36;3.08;;;0.70;;
49314;SDS011;36672;50.710;12.498;2023-02-02T14:13:07;4.30;;;0.93;;
49314;SDS011;36672;50.710;12.498;2023-02-02T14:15:59;3.30;;;0.70;;
49314;SDS011;36672;50.710;12.498;2023-02-02T14:26:46;3.15;;;1.02;;
49314;SDS011;36672;50.710;12.498;2023-02-02T14:32:28;1.80;;;0.73;;
49314;SDS011;36672;50.710;12.498;2023-02-02T14:34:48;5.35;;;0.90;;
49314;SDS011;36672;50.710;12.498;2023-02-02T14:45:45;2.65;;;0.68;;
49314;SDS011;36672;50.710;12.498;2023-02-02T14:48:30;3.20;;;0.90;;
49314;SDS011;36672;50.710;12.498;2023-02-02T14:50:56;3.00;;;1.08;;
49314;SDS011;36672;50.710;12.498;2023-02-02T14:53:27;4.03;;;0.80;;
49314;SDS011;36672;50.710;12.498;2023-02-02T14:56:10;3.10;;;0.65;;
49314;SDS011;36672;50.710;12.498;2023-02-02T14:58:39;4.65;;;1.00;;
49314;SDS011;36672;50.710;12.498;2023-02-02T15:01:21;4.38;;;1.55;;
49314;SDS011;36672;50.710;12.498;2023-02-02T15:06:41;2.58;;;0.80;;
49314;SDS011;36672;50.710;12.498;2023-02-02T15:19:55;4.13;;;1.10;;
49314;SDS011;36672;50.710;12.498;2023-02-02T15:22:29;3.20;;;1.10;;
49314;SDS011;36672;50.710;12.498;2023-02-02T15:24:59;4.20;;;0.70;;
49314;SDS011;36672;50.710;12.498;2023-02-02T15:27:28;4.82;;;1.05;;
49314;SDS011;36672;50.710;12.498;2023-02-02T15:29:56;3.65;;;1.10;;
49314;SDS011;36672;50.710;12.498;2023-02-02T15:32:27;6.55;;;1.33;;
49314;SDS011;36672;50.710;12.498;2023-02-02T15:34:58;4.05;;;1.13;;
49314;SDS011;36672;50.710;12.498;2023-02-02T15:37:31;4.13;;;1.27;;
49314;SDS011;36672;50.710;12.498;2023-02-02T15:40:07;2.95;;;0.95;;
49314;SDS011;36672;50.710;12.498;2023-02-02T15:42:44;5.18;;;0.85;;
49314;SDS011;36672;50.710;12.498;2023-02-02T15:47:56;4.35;;;1.08;;
49314;SDS011;36672;50.710;12.498;2023-02-02T15:50:22;4.20;;;1.27;;
49314;SDS011;36672;50.710;12.498;2023-02-02T15:52:48;3.80;;;1.17;;
49314;SDS011;36672;50.710;12.498;2023-02-02T15:55:20;2.45;;;0.93;;
49314;SDS011;36672;50.710;12.498;2023-02-02T15:57:59;3.58;;;1.00;;
49314;SDS011;36672;50.710;12.498;2023-02-02T16:02:56;4.53;;;0.88;;
49314;SDS011;36672;50.710;12.498;2023-02-02T16:08:03;4.20;;;1.00;;
49314;SDS011;36672;50.710;12.498;2023-02-02T16:10:33;6.03;;;1.05;;
49314;SDS011;36672;50.710;12.498;2023-02-02T16:12:59;2.85;;;1.20;;
49314;SDS011;36672;50.710;12.498;2023-02-02T16:15:26;3.47;;;1.35;;
49314;SDS011;36672;50.710;12.498;2023-02-02T16:17:56;4.82;;;1.50;;
49314;SDS011;36672;50.710;12.498;2023-02-02T16:20:33;2.65;;;1.00;;
49314;SDS011;36672;50.710;12.498;2023-02-02T16:23:02;5.25;;;1.48;;
49314;SDS011;36672;50.710;12.498;2023-02-02T16:25:30;2.63;;;1.35;;
49314;SDS011;36672;50.710;12.498;2023-02-02T16:27:58;3.33;;;1.10;;
49314;SDS011;36672;50.710;12.498;2023-02-02T16:32:55;6.65;;;1.58;;
49314;SDS011;36672;50.710;12.498;2023-02-02T16:35:34;4.10;;;1.00;;
49314;SDS011;36672;50.710;12.498;2023-02-02T16:38:11;5.85;;;1.58;;
49314;SDS011;36672;50.710;12.498;2023-02-02T16:40:36;5.18;;;1.48;;
49314;SDS011;36672;50.710;12.498;2023-02-02T16:45:46;6.47;;;1.40;;
49314;SDS011;36672;50.710;12.498;2023-02-02T16:48:27;5.38;;;1.30;;
49314;SDS011;36672;50.710;12.498;2023-02-02T16:51:01;5.97;;;1.60;;
49314;SDS011;36672;50.710;12.498;2023-02-02T16:53:33;3.47;;;1.30;;
49314;SDS011;36672;50.710;12.498;2023-02-02T16:56:00;5.70;;;1.70;;
49314;SDS011;36672;50.710;12.498;2023-02-02T16:58:29;5.68;;;1.60;;
49314;SDS011;36672;50.710;12.498;2023-02-02T17:00:58;3.97;;;1.30;;
49314;SDS011;36672;50.710;12.498;2023-02-02T17:03:31;5.13;;;1.70;;
49314;SDS011;36672;50.710;12.498;2023-02-02T17:05:59;4.55;;;1.75;;
49314;SDS011;36672;50.710;12.498;2023-02-02T17:08:33;3.30;;;1.20;;
49314;SDS011;36672;50.710;12.498;2023-02-02T17:11:04;5.10;;;1.83;;
49314;SDS011;36672;50.710;12.498;2023-02-02T17:13:50;3.70;;;2.15;;
49314;SDS011;36672;50.710;12.498;2023-02-02T17:16:17;5.20;;;1.80;;
49314;SDS011;36672;50.710;12.498;2023-02-02T17:18:44;6.90;;;2.50;;
49314;SDS011;36672;50.710;12.498;2023-02-02T17:21:12;4.18;;;2.47;;
49314;SDS011;36672;50.710;12.498;2023-02-02T17:23:39;5.10;;;2.22;;
49314;SDS011;36672;50.710;12.498;2023-02-02T17:26:09;9.18;;;2.80;;
49314;SDS011;36672;50.710;12.498;2023-02-02T17:28:36;6.70;;;2.30;;
49314;SDS011;36672;50.710;12.498;2023-02-02T17:31:07;3.80;;;2.10;;
49314;SDS011;36672;50.710;12.498;2023-02-02T17:33:35;6.38;;;2.58;;
49314;SDS011;36672;50.710;12.498;2023-02-02T17:36:02;8.07;;;1.80;;